createdAt,value
2022-10-25T00:01:12.000Z,100
2022-10-25T00:02:28.000Z,100
2022-10-25T00:03:44.000Z,100
2022-10-25T00:05:00.000Z,100
2022-10-25T00:06:16.000Z,100
2022-10-25T00:07:33.000Z,100
2022-10-25T00:08:49.000Z,100
2022-10-25T00:10:04.000Z,100
2022-10-25T00:11:20.000Z,100
2022-10-25T00:12:36.000Z,100
2022-10-25T00:13:53.000Z,100
2022-10-25T00:15:09.000Z,100
2022-10-25T00:16:25.000Z,100
2022-10-25T00:17:41.000Z,100
2022-10-25T00:18:57.000Z,100
2022-10-25T00:20:14.000Z,100
2022-10-25T00:21:30.000Z,100
2022-10-25T00:22:46.000Z,100
2022-10-25T00:24:02.000Z,100
2022-10-25T00:25:18.000Z,100
2022-10-25T00:26:34.210Z,100
2022-10-25T00:27:50.000Z,100
2022-10-25T00:29:06.000Z,100
2022-10-25T00:30:22.000Z,100
2022-10-25T00:31:38.000Z,100
2022-10-25T00:32:54.000Z,100
2022-10-25T00:34:11.000Z,100
2022-10-25T00:35:27.000Z,100
2022-10-25T00:36:43.000Z,100
2022-10-25T00:37:59.000Z,100
2022-10-25T00:39:15.000Z,100
2022-10-25T00:40:32.000Z,100
2022-10-25T00:41:48.000Z,100
2022-10-25T00:43:03.000Z,100
2022-10-25T00:44:19.000Z,100
2022-10-25T00:45:35.000Z,100
2022-10-25T00:46:51.000Z,100
2022-10-25T00:48:08.000Z,100
2022-10-25T00:49:24.000Z,100
2022-10-25T00:50:40.000Z,100
2022-10-25T00:51:56.000Z,100
2022-10-25T00:53:12.000Z,100
2022-10-25T00:54:29.000Z,100
2022-10-25T00:55:45.000Z,100
2022-10-25T00:57:01.000Z,100
2022-10-25T00:58:17.000Z,100
2022-10-25T00:59:32.000Z,100
2022-10-25T01:00:49.000Z,100
2022-10-25T01:02:05.000Z,100
2022-10-25T01:03:21.000Z,100
2022-10-25T01:04:37.000Z,100
2022-10-25T01:05:52.000Z,100
2022-10-25T01:07:09.000Z,100
2022-10-25T01:08:25.000Z,100
2022-10-25T01:09:41.000Z,100
2022-10-25T01:10:57.000Z,100
2022-10-25T01:12:13.000Z,100
2022-10-25T01:13:29.000Z,100
2022-10-25T01:14:46.000Z,100
2022-10-25T01:16:02.000Z,100
2022-10-25T01:17:18.000Z,100
2022-10-25T01:18:34.000Z,100
2022-10-25T01:19:50.000Z,100
2022-10-25T01:21:07.000Z,100
2022-10-25T01:22:22.000Z,100
2022-10-25T01:23:38.000Z,100
2022-10-25T01:24:54.000Z,100
2022-10-25T01:26:10.000Z,100
2022-10-25T01:27:27.000Z,100
2022-10-25T01:28:43.000Z,100
2022-10-25T01:29:59.000Z,100
2022-10-25T01:31:15.000Z,100
2022-10-25T01:32:31.000Z,100
2022-10-25T01:33:47.000Z,100
2022-10-25T01:35:04.000Z,100
2022-10-25T01:36:20.000Z,100
2022-10-25T01:37:36.000Z,100
2022-10-25T01:38:51.000Z,100
2022-10-25T01:40:07.000Z,100
2022-10-25T01:41:24.000Z,100
2022-10-25T01:42:40.000Z,100
2022-10-25T01:43:56.000Z,100
2022-10-25T01:45:12.000Z,100
2022-10-25T01:46:28.000Z,100
2022-10-25T01:47:45.000Z,100
2022-10-25T01:49:01.000Z,99.9
2022-10-25T01:50:17.000Z,99.7
2022-10-25T01:51:33.000Z,99.7
2022-10-25T01:52:49.000Z,99.5
2022-10-25T01:54:05.000Z,99.7
2022-10-25T01:55:21.000Z,99.9
2022-10-25T01:56:37.000Z,100
2022-10-25T01:57:53.000Z,100
2022-10-25T01:59:09.000Z,100
2022-10-25T02:00:25.000Z,100
2022-10-25T02:01:42.000Z,99.7
2022-10-25T02:02:58.000Z,99.6
2022-10-25T02:04:14.000Z,99
2022-10-25T02:05:30.000Z,98.9
2022-10-25T02:06:46.000Z,98.9
2022-10-25T02:08:03.000Z,99
2022-10-25T02:09:19.000Z,98.8
2022-10-25T02:10:35.000Z,98.8
2022-10-25T02:11:50.000Z,98.9
2022-10-25T02:13:06.000Z,98.9
2022-10-25T02:14:23.000Z,98.9
2022-10-25T02:15:39.000Z,98.9
2022-10-25T02:16:55.000Z,98.9
2022-10-25T02:18:11.000Z,98.7
2022-10-25T02:19:27.000Z,98.8
2022-10-25T02:20:43.000Z,98.7
2022-10-25T02:22:00.000Z,98.6
2022-10-25T02:23:16.000Z,98.5
2022-10-25T02:24:32.000Z,98.4
2022-10-25T02:25:48.000Z,98.5
2022-10-25T02:27:04.000Z,98.4
2022-10-25T02:28:20.000Z,98.4
2022-10-25T02:29:36.000Z,98.3
2022-10-25T02:30:52.000Z,98.3
2022-10-25T02:32:08.000Z,98.3
2022-10-25T02:33:24.000Z,98.2
2022-10-25T02:34:41.000Z,98.2
2022-10-25T02:35:57.000Z,98.2
2022-10-25T02:37:13.000Z,98.3
2022-10-25T02:38:29.000Z,98.3
2022-10-25T02:39:45.000Z,98.4
2022-10-25T02:41:01.000Z,98.4
2022-10-25T02:42:18.000Z,98.4
2022-10-25T02:43:34.000Z,98.3
2022-10-25T02:44:49.000Z,98.3
2022-10-25T02:46:05.000Z,98.4
2022-10-25T02:47:21.000Z,98.4
2022-10-25T02:48:38.000Z,98.3
2022-10-25T02:49:54.000Z,98.1
2022-10-25T02:51:10.000Z,98
2022-10-25T02:52:26.000Z,97.9
2022-10-25T02:53:42.000Z,97.8
2022-10-25T02:54:59.000Z,97.8
2022-10-25T02:56:15.000Z,97.5
2022-10-25T02:57:31.000Z,97.1
2022-10-25T02:58:47.000Z,97.1
2022-10-25T03:00:03.000Z,97.1
2022-10-25T03:01:18.000Z,97.2
2022-10-25T03:02:35.000Z,97.2
2022-10-25T03:03:51.000Z,97.3
2022-10-25T03:05:07.000Z,97.3
2022-10-25T03:06:23.000Z,97.2
2022-10-25T03:07:39.000Z,97.1
2022-10-25T03:08:56.000Z,97
2022-10-25T03:10:12.000Z,97
2022-10-25T03:11:28.000Z,97
2022-10-25T03:12:44.000Z,97.1
2022-10-25T03:14:00.000Z,96.9
2022-10-25T03:15:17.000Z,96.7
2022-10-25T03:16:33.000Z,96.8
2022-10-25T03:17:48.000Z,96.7
2022-10-25T03:19:04.000Z,96.8
2022-10-25T03:20:20.000Z,96.8
2022-10-25T03:21:37.000Z,96.7
2022-10-25T03:22:53.000Z,96.5
2022-10-25T03:24:09.000Z,96.5
2022-10-25T03:25:25.000Z,96.6
2022-10-25T03:26:41.000Z,96.7
2022-10-25T03:27:57.000Z,96.8
2022-10-25T03:29:14.000Z,96.9
2022-10-25T03:30:30.000Z,96.9
2022-10-25T03:31:46.000Z,97
2022-10-25T03:33:02.000Z,96.9
2022-10-25T03:34:17.000Z,96.9
2022-10-25T03:35:34.000Z,96.5
2022-10-25T03:36:50.000Z,96.4
2022-10-25T03:38:06.000Z,96.4
2022-10-25T03:39:22.000Z,96.5
2022-10-25T03:40:38.000Z,96.5
2022-10-25T03:41:55.000Z,96.4
2022-10-25T03:43:11.000Z,96.3
2022-10-25T03:44:27.000Z,96.3
2022-10-25T03:45:43.000Z,96.1
2022-10-25T03:46:59.000Z,95.9
2022-10-25T03:48:16.000Z,95.8
2022-10-25T03:49:32.000Z,95.9
2022-10-25T03:50:47.000Z,95.9
2022-10-25T03:52:03.000Z,95.8
2022-10-25T03:53:19.000Z,95.9
2022-10-25T03:54:35.000Z,95.8
2022-10-25T03:55:52.000Z,95.9
2022-10-25T03:57:08.000Z,95.9
2022-10-25T03:58:24.000Z,96.2
2022-10-25T03:59:40.000Z,96.3
2022-10-25T04:00:56.000Z,96.2
2022-10-25T04:02:13.000Z,96.3
2022-10-25T04:03:29.000Z,96.4
2022-10-25T04:04:45.000Z,96.3
2022-10-25T04:06:01.000Z,96.3
2022-10-25T04:07:16.000Z,96.3
2022-10-25T04:08:33.000Z,96.4
2022-10-25T04:09:49.000Z,96.3
2022-10-25T04:11:05.000Z,96.3
2022-10-25T04:12:21.000Z,96.4
2022-10-25T04:13:37.000Z,96.5
2022-10-25T04:14:53.000Z,96.5
2022-10-25T04:16:10.000Z,96.4
2022-10-25T04:17:26.000Z,96.4
2022-10-25T04:18:42.000Z,96.5
2022-10-25T04:19:58.000Z,96.5
2022-10-25T04:21:14.000Z,96.5
2022-10-25T04:22:31.000Z,96.4
2022-10-25T04:23:46.000Z,96.2
2022-10-25T04:25:02.000Z,96.1
2022-10-25T04:26:18.000Z,96.2
2022-10-25T04:27:34.000Z,96.3
2022-10-25T04:28:51.000Z,96.1
2022-10-25T04:30:07.000Z,96.2
2022-10-25T04:31:23.000Z,96.4
2022-10-25T04:32:39.000Z,96.4
2022-10-25T04:33:55.000Z,96.5
2022-10-25T04:35:12.000Z,96.4
2022-10-25T04:36:28.000Z,96.1
2022-10-25T04:37:44.000Z,95.8
2022-10-25T04:39:00.000Z,95.9
2022-10-25T04:40:15.000Z,96.2
2022-10-25T04:41:31.000Z,96.3
2022-10-25T04:42:48.000Z,96.3
2022-10-25T04:44:04.000Z,96.3
2022-10-25T04:45:20.000Z,96.3
2022-10-25T04:46:36.000Z,96.4
2022-10-25T04:47:52.000Z,96.4
2022-10-25T04:49:09.000Z,96.5
2022-10-25T04:50:25.000Z,96.5
2022-10-25T04:51:41.000Z,96.5
2022-10-25T04:52:57.000Z,96.5
2022-10-25T04:54:13.000Z,96.6
2022-10-25T04:55:30.000Z,96.6
2022-10-25T04:56:45.000Z,96.6
2022-10-25T04:58:01.000Z,96.6
2022-10-25T04:59:17.000Z,96.6
2022-10-25T05:00:33.000Z,96.6
2022-10-25T05:01:50.000Z,96.7
2022-10-25T05:03:06.000Z,96.8
2022-10-25T05:04:22.000Z,96.9
2022-10-25T05:05:38.000Z,96.8
2022-10-25T05:06:54.000Z,96.9
2022-10-25T05:08:10.000Z,96.9
2022-10-25T05:09:27.000Z,96.9
2022-10-25T05:10:43.000Z,96.8
2022-10-25T05:11:59.000Z,96.8
2022-10-25T05:13:14.000Z,96.9
2022-10-25T05:14:30.000Z,97
2022-10-25T05:15:47.000Z,97.1
2022-10-25T05:17:03.000Z,97.1
2022-10-25T05:18:19.000Z,97.1
2022-10-25T05:19:35.000Z,97.2
2022-10-25T05:20:50.000Z,97.2
2022-10-25T05:22:07.000Z,97.2
2022-10-25T05:23:23.000Z,97.2
2022-10-25T05:24:39.000Z,97.2
2022-10-25T05:25:55.000Z,97.3
2022-10-25T05:27:11.000Z,97.3
2022-10-25T05:28:28.000Z,97.2
2022-10-25T05:29:44.000Z,97.1
2022-10-25T05:31:00.000Z,97
2022-10-25T05:32:16.000Z,96.7
2022-10-25T05:33:32.000Z,96.7
2022-10-25T05:34:48.000Z,96.7
2022-10-25T05:36:05.000Z,96.9
2022-10-25T05:37:20.000Z,96.9
2022-10-25T05:38:36.000Z,97
2022-10-25T05:39:52.000Z,97.1
2022-10-25T05:41:08.000Z,97.1
2022-10-25T05:42:25.000Z,97
2022-10-25T05:43:41.000Z,97.1
2022-10-25T05:44:57.000Z,97.2
2022-10-25T05:46:13.000Z,97.3
2022-10-25T05:47:29.000Z,97.2
2022-10-25T05:48:46.000Z,97.2
2022-10-25T05:50:02.000Z,97.1
2022-10-25T05:51:18.000Z,97.2
2022-10-25T05:52:34.000Z,97.4
2022-10-25T05:53:49.000Z,97.5
2022-10-25T05:55:06.000Z,97.4
2022-10-25T05:56:22.000Z,97.5
2022-10-25T05:57:38.000Z,97.4
2022-10-25T05:58:54.000Z,97.5
2022-10-25T06:00:10.000Z,97.5
2022-10-25T06:01:26.000Z,97.5
2022-10-25T06:02:43.000Z,97.6
2022-10-25T06:03:59.000Z,97.6
2022-10-25T06:05:15.000Z,97.7
2022-10-25T06:06:31.000Z,97.7
2022-10-25T06:07:47.000Z,97.7
2022-10-25T06:09:04.000Z,97.7
2022-10-25T06:10:19.000Z,97.6
2022-10-25T06:11:35.000Z,97.6
2022-10-25T06:12:51.000Z,97.6
2022-10-25T06:14:07.000Z,97.7
2022-10-25T06:15:24.000Z,97.8
2022-10-25T06:16:40.000Z,97.8
2022-10-25T06:17:56.000Z,97.7
2022-10-25T06:19:12.000Z,97.7
2022-10-25T06:20:28.000Z,97.6
2022-10-25T06:21:44.000Z,97.5
2022-10-25T06:23:01.000Z,97.5
2022-10-25T06:24:17.000Z,97.4
2022-10-25T06:25:33.000Z,97.4
2022-10-25T06:26:48.000Z,97.3
2022-10-25T06:28:04.000Z,97.1
2022-10-25T06:29:21.000Z,96.9
2022-10-25T06:30:37.000Z,96.6
2022-10-25T06:31:53.000Z,96.5
2022-10-25T06:33:09.000Z,96.6
2022-10-25T06:34:25.000Z,96.5
2022-10-25T06:35:42.000Z,96.2
2022-10-25T06:36:58.000Z,96.3
2022-10-25T06:38:14.000Z,96.2
2022-10-25T06:39:30.000Z,96.1
2022-10-25T06:40:46.000Z,96
2022-10-25T06:42:03.000Z,95.9
2022-10-25T06:43:18.000Z,95.7
2022-10-25T06:44:34.000Z,95.7
2022-10-25T06:45:50.000Z,95.5
2022-10-25T06:47:06.000Z,95.5
2022-10-25T06:48:22.000Z,95.8
2022-10-25T06:49:39.000Z,95.9
2022-10-25T06:50:55.000Z,96.1
2022-10-25T06:52:11.000Z,96.2
2022-10-25T06:53:27.000Z,96.2
2022-10-25T06:54:43.000Z,96.2
2022-10-25T06:56:00.000Z,96.1
2022-10-25T06:57:16.000Z,95.9
2022-10-25T06:58:32.000Z,95.9
2022-10-25T06:59:47.000Z,95.8
2022-10-25T07:01:03.000Z,95.8
2022-10-25T07:02:20.000Z,95.8
2022-10-25T07:03:36.000Z,95.9
2022-10-25T07:04:52.000Z,96
2022-10-25T07:06:08.000Z,96.1
2022-10-25T07:07:24.000Z,96.1
2022-10-25T07:08:41.000Z,96.1
2022-10-25T07:09:57.000Z,96.2
2022-10-25T07:11:13.000Z,96.3
2022-10-25T07:12:29.000Z,96.3
2022-10-25T07:13:45.000Z,96.4
2022-10-25T07:15:01.000Z,96.5
2022-10-25T07:16:17.000Z,96.6
2022-10-25T07:17:33.000Z,96.6
2022-10-25T07:18:49.000Z,96.5
2022-10-25T07:20:05.000Z,96.3
2022-10-25T07:21:21.000Z,96.1
2022-10-25T07:22:38.000Z,96
2022-10-25T07:23:54.000Z,95.8
2022-10-25T07:25:10.000Z,95.6
2022-10-25T07:26:26.000Z,95.5
2022-10-25T07:27:42.000Z,95.4
2022-10-25T07:28:59.000Z,95.3
2022-10-25T07:30:15.000Z,95.2
2022-10-25T07:31:31.000Z,95
2022-10-25T07:32:46.000Z,94.9
2022-10-25T07:34:02.000Z,95
2022-10-25T07:35:19.000Z,95
2022-10-25T07:36:35.000Z,95.4
2022-10-25T07:37:51.000Z,96.1
2022-10-25T07:39:07.000Z,96.5
2022-10-25T07:40:23.000Z,96.6
2022-10-25T07:41:39.000Z,96.6
2022-10-25T07:42:56.000Z,96.8
2022-10-25T07:44:12.000Z,96.7
2022-10-25T07:45:28.000Z,96.7
2022-10-25T07:46:44.000Z,96.5
2022-10-25T07:48:00.000Z,96.3
2022-10-25T07:49:16.000Z,96.1
2022-10-25T07:50:32.000Z,96
2022-10-25T07:51:48.000Z,95.8
2022-10-25T07:53:04.000Z,95.7
2022-10-25T07:54:20.000Z,95.5
2022-10-25T07:55:37.000Z,95.4
2022-10-25T07:56:53.000Z,95.4
2022-10-25T07:58:09.000Z,95.6
2022-10-25T07:59:25.000Z,95.4
2022-10-25T08:00:41.000Z,95.4
2022-10-25T08:01:57.000Z,95.2
2022-10-25T08:03:14.000Z,95.1
2022-10-25T08:04:30.000Z,95.2
2022-10-25T08:05:45.000Z,95.2
2022-10-25T08:07:01.000Z,95.2
2022-10-25T08:08:17.000Z,95.3
2022-10-25T08:09:34.000Z,95.2
2022-10-25T08:10:50.000Z,95.1
2022-10-25T08:12:06.000Z,94.9
2022-10-25T08:13:22.000Z,94.9
2022-10-25T08:14:38.000Z,95
2022-10-25T08:15:55.000Z,95
2022-10-25T08:17:11.000Z,95.1
2022-10-25T08:18:27.000Z,95.1
2022-10-25T08:19:43.000Z,95
2022-10-25T08:20:59.000Z,94.7
2022-10-25T08:22:15.000Z,94.7
2022-10-25T08:23:31.000Z,94.8
2022-10-25T08:24:47.000Z,94.7
2022-10-25T08:26:03.000Z,94.7
2022-10-25T08:27:19.000Z,94.6
2022-10-25T08:28:35.000Z,94.6
2022-10-25T08:29:52.000Z,94.1
2022-10-25T08:31:08.000Z,94
2022-10-25T08:32:24.000Z,94.2
2022-10-25T08:33:40.000Z,94.3
2022-10-25T08:34:56.000Z,94.2
2022-10-25T08:36:13.000Z,94.5
2022-10-25T08:37:29.000Z,94.5
2022-10-25T08:38:44.000Z,94.3
2022-10-25T08:40:00.000Z,94.2
2022-10-25T08:41:16.000Z,94.2
2022-10-25T08:42:33.000Z,94.1
2022-10-25T08:43:49.000Z,93.8
2022-10-25T08:45:05.000Z,93.5
2022-10-25T08:46:21.000Z,93.5
2022-10-25T08:47:37.000Z,93.2
2022-10-25T08:48:54.000Z,93.5
2022-10-25T08:50:10.000Z,93.3
2022-10-25T08:51:26.000Z,93.2
2022-10-25T08:52:42.000Z,93.2
2022-10-25T08:53:58.000Z,92.9
2022-10-25T08:55:13.000Z,92.8
2022-10-25T08:56:30.000Z,92.6
2022-10-25T08:57:46.000Z,92.5
2022-10-25T08:59:02.000Z,92.4
2022-10-25T09:00:18.000Z,92.6
2022-10-25T09:01:34.000Z,92.2
2022-10-25T09:02:51.000Z,92.5
2022-10-25T09:04:07.000Z,92.6
2022-10-25T09:05:23.000Z,92.7
2022-10-25T09:06:39.000Z,92.8
2022-10-25T09:07:55.000Z,92.9
2022-10-25T09:09:12.000Z,92.6
2022-10-25T09:10:28.000Z,92.6
2022-10-25T09:11:43.000Z,92.6
2022-10-25T09:12:59.000Z,92.2
2022-10-25T09:14:15.000Z,92.4
2022-10-25T09:15:32.000Z,92.9
2022-10-25T09:16:48.000Z,92.7
2022-10-25T09:18:04.000Z,92.6
2022-10-25T09:19:20.000Z,92.5
2022-10-25T09:20:36.000Z,92.7
2022-10-25T09:21:52.000Z,92.6
2022-10-25T09:23:09.000Z,92.9
2022-10-25T09:24:25.000Z,92.7
2022-10-25T09:25:41.000Z,92.4
2022-10-25T09:26:57.000Z,92.2
2022-10-25T09:28:12.000Z,92.4
2022-10-25T09:29:29.000Z,91.7
2022-10-25T09:30:45.000Z,91.7
2022-10-25T09:32:01.000Z,91.9
2022-10-25T09:33:17.000Z,91.9
2022-10-25T09:34:33.000Z,91.4
2022-10-25T09:35:49.000Z,91.4
2022-10-25T09:37:05.000Z,91.6
2022-10-25T09:38:21.000Z,91.7
2022-10-25T09:39:37.000Z,91.7
2022-10-25T09:40:53.000Z,91.9
2022-10-25T09:42:10.000Z,91.7
2022-10-25T09:43:26.000Z,91.7
2022-10-25T09:44:42.000Z,91.8
2022-10-25T09:45:58.000Z,91.2
2022-10-25T09:47:14.000Z,91
2022-10-25T09:48:30.000Z,91.1
2022-10-25T09:49:47.000Z,91.3
2022-10-25T09:51:03.000Z,91.4
2022-10-25T09:52:18.000Z,90.8
2022-10-25T09:53:34.000Z,90.7
2022-10-25T09:54:50.000Z,89.9
2022-10-25T09:56:07.000Z,89.9
2022-10-25T09:57:23.000Z,89.3
2022-10-25T09:58:39.000Z,89.2
2022-10-25T09:59:55.000Z,89
2022-10-25T10:01:11.000Z,89.2
2022-10-25T10:02:28.000Z,89.4
2022-10-25T10:03:44.000Z,89.5
2022-10-25T10:05:00.000Z,89.1
2022-10-25T10:06:16.000Z,89.3
2022-10-25T10:07:32.000Z,89.3
2022-10-25T10:08:48.000Z,89.3
2022-10-25T10:10:04.000Z,89.4
2022-10-25T10:11:20.000Z,89.1
2022-10-25T10:12:36.000Z,88.9
2022-10-25T10:13:52.000Z,88.9
2022-10-25T10:15:08.000Z,88.5
2022-10-25T10:16:25.000Z,87.8
2022-10-25T10:17:41.000Z,87.7
2022-10-25T10:18:57.000Z,88.2
2022-10-25T10:20:13.000Z,88
2022-10-25T10:21:29.000Z,88.2
2022-10-25T10:22:46.000Z,88
2022-10-25T10:24:02.000Z,87.5
2022-10-25T10:25:17.000Z,87.4
2022-10-25T10:26:33.000Z,87.2
2022-10-25T10:27:49.000Z,87.3
2022-10-25T10:29:06.000Z,87.3
2022-10-25T10:30:22.000Z,86.8
2022-10-25T10:31:38.000Z,86.2
2022-10-25T10:32:54.000Z,85.2
2022-10-25T10:34:10.000Z,84.4
2022-10-25T10:35:26.000Z,85.6
2022-10-25T10:36:43.000Z,86
2022-10-25T10:37:59.000Z,86.2
2022-10-25T10:39:15.000Z,86.4
2022-10-25T10:40:31.000Z,87
2022-10-25T10:41:46.000Z,86.9
2022-10-25T10:43:03.000Z,87
2022-10-25T10:44:19.000Z,87.4
2022-10-25T10:45:35.000Z,87.7
2022-10-25T10:46:51.000Z,87.7
2022-10-25T10:48:07.000Z,86.3
2022-10-25T10:49:24.000Z,85.8
2022-10-25T10:50:40.000Z,85.8
2022-10-25T10:51:56.000Z,85.3
2022-10-25T10:53:12.000Z,84.9
2022-10-25T10:54:28.000Z,85.2
2022-10-25T10:55:45.000Z,85.5
2022-10-25T10:57:01.000Z,85.2
2022-10-25T10:58:16.000Z,85.1
2022-10-25T10:59:32.000Z,85.3
2022-10-25T11:00:48.000Z,85
2022-10-25T11:02:04.000Z,84.8
2022-10-25T11:03:21.000Z,84.6
2022-10-25T11:04:37.000Z,84.5
2022-10-25T11:05:53.000Z,84.3
2022-10-25T11:07:09.000Z,84.8
2022-10-25T11:08:25.000Z,85.2
2022-10-25T11:09:42.000Z,85.3
2022-10-25T11:10:58.000Z,85.2
2022-10-25T11:12:14.000Z,85.3
2022-10-25T11:13:30.000Z,85.1
2022-10-25T11:14:45.000Z,84.9
2022-10-25T11:16:02.000Z,85.2
2022-10-25T11:17:18.000Z,85.6
2022-10-25T11:18:34.000Z,85.8
2022-10-25T11:19:50.000Z,85.3
2022-10-25T11:21:06.000Z,85
2022-10-25T11:22:23.000Z,84.8
2022-10-25T11:23:39.000Z,83.9
2022-10-25T11:24:55.000Z,82.9
2022-10-25T11:26:11.000Z,81.4
2022-10-25T11:27:27.000Z,81.5
2022-10-25T11:28:43.000Z,80.4
2022-10-25T11:30:00.000Z,79.7
2022-10-25T11:31:15.000Z,80.2
2022-10-25T11:32:31.000Z,79.6
2022-10-25T11:33:47.000Z,79.3
2022-10-25T11:35:03.000Z,79.1
2022-10-25T11:36:20.000Z,78.4
2022-10-25T11:37:36.000Z,77.6
2022-10-25T11:38:52.000Z,76.2
2022-10-25T11:40:08.000Z,74.5
2022-10-25T11:41:24.000Z,75.5
2022-10-25T11:42:41.000Z,76.8
2022-10-25T11:43:57.000Z,77.9
2022-10-25T11:45:13.000Z,77.8
2022-10-25T11:46:29.000Z,77.3
2022-10-25T11:47:44.000Z,76.9
2022-10-25T11:49:00.000Z,75.7
2022-10-25T11:50:17.000Z,75.6
2022-10-25T11:51:33.000Z,76.1
2022-10-25T11:52:49.000Z,76.2
2022-10-25T11:54:05.000Z,76.1
2022-10-25T11:55:21.000Z,77.8
2022-10-25T11:56:38.000Z,79.3
2022-10-25T11:57:54.000Z,79.4
2022-10-25T11:59:10.000Z,80.3
2022-10-25T12:00:26.000Z,80.8
2022-10-25T12:01:42.000Z,80.5
2022-10-25T12:02:59.000Z,80
2022-10-25T12:04:14.000Z,80.2
2022-10-25T12:05:30.000Z,80.2
2022-10-25T12:06:46.000Z,80.7
2022-10-25T12:08:02.000Z,80.8
2022-10-25T12:09:19.000Z,80.9
2022-10-25T12:10:35.000Z,80.6
2022-10-25T12:11:51.000Z,78
2022-10-25T12:13:07.000Z,75.6
2022-10-25T12:14:23.000Z,74.3
2022-10-25T12:15:39.000Z,72.7
2022-10-25T12:16:56.000Z,74.6
2022-10-25T12:18:12.000Z,76.2
2022-10-25T12:19:28.000Z,74.8
2022-10-25T12:20:43.000Z,73.7
2022-10-25T12:21:59.000Z,72.6
2022-10-25T12:23:16.000Z,73
2022-10-25T12:24:32.000Z,71.8
2022-10-25T12:25:48.000Z,71.4
2022-10-25T12:27:04.000Z,72.9
2022-10-25T12:28:20.000Z,72.8
2022-10-25T12:29:37.000Z,71.5
2022-10-25T12:30:53.000Z,71.8
2022-10-25T12:32:09.000Z,72.2
2022-10-25T12:33:25.000Z,73.5
2022-10-25T12:34:41.000Z,75.6
2022-10-25T12:35:58.000Z,76.8
2022-10-25T12:37:13.000Z,77.1
2022-10-25T12:38:29.000Z,77.1
2022-10-25T12:39:45.000Z,77.4
2022-10-25T12:41:01.000Z,77.7
2022-10-25T12:42:17.000Z,77.9
2022-10-25T12:43:34.000Z,77.9
2022-10-25T12:44:50.000Z,74.8
2022-10-25T12:46:06.000Z,72.7
2022-10-25T12:47:22.000Z,71.6
2022-10-25T12:48:38.000Z,69.7
2022-10-25T12:49:55.000Z,69.9
2022-10-25T12:51:11.000Z,69.3
2022-10-25T12:52:27.000Z,67.1
2022-10-25T12:53:42.000Z,66.4
2022-10-25T12:54:58.000Z,68.5
2022-10-25T12:56:15.000Z,71.2
2022-10-25T12:57:31.000Z,73.5
2022-10-25T12:58:47.000Z,74.7
2022-10-25T13:00:03.000Z,76.1
2022-10-25T13:01:19.000Z,76.3
2022-10-25T13:02:35.000Z,75.9
2022-10-25T13:03:52.000Z,77
2022-10-25T13:05:08.000Z,77.9
2022-10-25T13:06:24.000Z,77.8
2022-10-25T13:07:40.000Z,77.9
2022-10-25T13:08:56.000Z,78.4
2022-10-25T13:10:12.000Z,78.7
2022-10-25T13:11:28.000Z,79.3
2022-10-25T13:12:44.000Z,79.2
2022-10-25T13:14:00.000Z,78.9
2022-10-25T13:15:16.000Z,79.4
2022-10-25T13:16:33.000Z,78.9
2022-10-25T13:17:49.000Z,79.3
2022-10-25T13:19:05.000Z,79.8
2022-10-25T13:20:21.000Z,80.3
2022-10-25T13:21:37.000Z,80.7
2022-10-25T13:22:53.000Z,80.8
2022-10-25T13:24:10.000Z,80.3
2022-10-25T13:25:26.000Z,79.6
2022-10-25T13:26:41.000Z,79.6
2022-10-25T13:27:57.000Z,79.5
2022-10-25T13:29:13.000Z,79.4
2022-10-25T13:30:30.000Z,79.4
2022-10-25T13:31:46.000Z,77.1
2022-10-25T13:33:02.000Z,75.5
2022-10-25T13:34:18.000Z,74.3
2022-10-25T13:35:34.000Z,73.5
2022-10-25T13:36:51.000Z,73.1
2022-10-25T13:38:07.000Z,73
2022-10-25T13:39:23.000Z,71.8
2022-10-25T13:40:39.000Z,71.1
2022-10-25T13:41:55.000Z,71.9
2022-10-25T13:43:11.000Z,72.2
2022-10-25T13:44:27.000Z,73.1
2022-10-25T13:45:43.000Z,74.2
2022-10-25T13:46:59.000Z,73.2
2022-10-25T13:48:15.000Z,74.4
2022-10-25T13:49:31.000Z,75.4
2022-10-25T13:50:47.000Z,76.2
2022-10-25T13:52:03.000Z,76.7
2022-10-25T13:53:19.000Z,77.7
2022-10-25T13:54:35.000Z,77.6
2022-10-25T13:55:51.000Z,78.3
2022-10-25T13:57:08.000Z,79.1
2022-10-25T13:58:24.000Z,79.8
2022-10-25T13:59:40.000Z,79.2
2022-10-25T14:00:56.000Z,77.1
2022-10-25T14:02:12.000Z,76
2022-10-25T14:03:29.000Z,75.5
2022-10-25T14:04:45.000Z,74.2
2022-10-25T14:06:01.000Z,73.7
2022-10-25T14:07:16.000Z,73.8
2022-10-25T14:08:32.000Z,74.2
2022-10-25T14:09:48.000Z,74.8
2022-10-25T14:11:05.000Z,75.3
2022-10-25T14:12:21.000Z,74.9
2022-10-25T14:13:37.000Z,75.4
2022-10-25T14:14:53.000Z,75.2
2022-10-25T14:16:09.000Z,74.9
2022-10-25T14:17:26.000Z,74.5
2022-10-25T14:18:42.000Z,74.9
2022-10-25T14:19:58.000Z,75.3
2022-10-25T14:21:14.000Z,75.4
2022-10-25T14:22:30.000Z,76.1
2022-10-25T14:23:46.000Z,76.5
2022-10-25T14:25:02.000Z,76.2
2022-10-25T14:26:18.000Z,76
2022-10-25T14:27:34.000Z,75.5
2022-10-25T14:28:50.000Z,75.7
2022-10-25T14:30:06.000Z,76.5
2022-10-25T14:31:23.000Z,76.2
2022-10-25T14:32:39.000Z,75.3
2022-10-25T14:33:55.000Z,75.8
2022-10-25T14:35:11.000Z,76.8
2022-10-25T14:36:27.000Z,77
2022-10-25T14:37:44.000Z,77.1
2022-10-25T14:39:00.000Z,76.2
2022-10-25T14:40:15.000Z,76.7
2022-10-25T14:41:31.000Z,76.9
2022-10-25T14:42:47.000Z,77.8
2022-10-25T14:44:04.000Z,77.4
2022-10-25T14:45:20.000Z,76.1
2022-10-25T14:46:36.000Z,75.4
2022-10-25T14:47:52.000Z,75.4
2022-10-25T14:49:08.000Z,75.3
2022-10-25T14:50:25.000Z,76
2022-10-25T14:51:41.000Z,76.2
2022-10-25T14:52:57.000Z,75.2
2022-10-25T14:54:13.000Z,75
2022-10-25T14:55:29.000Z,74.9
2022-10-25T14:56:44.000Z,75.9
2022-10-25T14:58:01.000Z,75.5
2022-10-25T14:59:17.000Z,75.8
2022-10-25T15:00:33.000Z,76.3
2022-10-25T15:01:49.000Z,76.1
2022-10-25T15:03:05.000Z,76.2
2022-10-25T15:04:22.000Z,76.3
2022-10-25T15:05:38.000Z,76.6
2022-10-25T15:06:54.000Z,77.1
2022-10-25T15:08:10.000Z,77
2022-10-25T15:09:26.000Z,77.3
2022-10-25T15:10:43.000Z,77.6
2022-10-25T15:11:59.000Z,77.9
2022-10-25T15:13:14.000Z,77.7
2022-10-25T15:14:30.000Z,77.5
2022-10-25T15:15:46.000Z,77.6
2022-10-25T15:17:02.000Z,77.7
2022-10-25T15:18:19.000Z,77.9
2022-10-25T15:19:35.000Z,77.9
2022-10-25T15:20:51.000Z,78.2
2022-10-25T15:22:07.000Z,77.9
2022-10-25T15:23:23.000Z,78.3
2022-10-25T15:24:40.000Z,78.3
2022-10-25T15:25:56.000Z,78.2
2022-10-25T15:27:12.000Z,78
2022-10-25T15:28:28.000Z,77.9
2022-10-25T15:29:43.000Z,78.3
2022-10-25T15:31:00.000Z,78.6
2022-10-25T15:32:16.000Z,78.6
2022-10-25T15:33:32.000Z,78.7
2022-10-25T15:34:48.000Z,78.6
2022-10-25T15:36:04.000Z,78.3
2022-10-25T15:37:20.000Z,77.9
2022-10-25T15:38:37.383Z,78.7
2022-10-25T15:39:53.000Z,78.8
2022-10-25T15:41:09.000Z,78.7
2022-10-25T15:42:25.000Z,79.5
2022-10-25T15:43:41.000Z,79.5
2022-10-25T15:44:58.000Z,79.2
2022-10-25T15:46:13.000Z,79.3
2022-10-25T15:47:29.000Z,80.3
2022-10-25T15:48:45.000Z,81
2022-10-25T15:50:01.000Z,81.6
2022-10-25T15:51:18.000Z,82.3
2022-10-25T15:52:34.000Z,82.3
2022-10-25T15:53:50.643Z,82.3
2022-10-25T15:55:06.000Z,82.6
2022-10-25T15:56:22.000Z,82.7
2022-10-25T15:57:38.000Z,83
2022-10-25T15:58:55.000Z,83.3
2022-10-25T16:00:11.000Z,83.7
2022-10-25T16:01:27.000Z,84
2022-10-25T16:02:42.000Z,84.2
2022-10-25T16:03:58.000Z,84.4
2022-10-25T16:05:15.000Z,84.5
2022-10-25T16:06:31.000Z,84.8
2022-10-25T16:07:47.000Z,85
2022-10-25T16:09:03.000Z,85.3
2022-10-25T16:10:19.000Z,85.6
2022-10-25T16:11:36.000Z,85.7
2022-10-25T16:12:52.000Z,85.9
2022-10-25T16:14:08.000Z,85.8
2022-10-25T16:15:24.000Z,85.9
2022-10-25T16:16:40.000Z,85.9
2022-10-25T16:17:56.000Z,85.9
2022-10-25T16:19:13.000Z,85.9
2022-10-25T16:20:28.000Z,85.8
2022-10-25T16:21:44.000Z,85.9
2022-10-25T16:23:00.000Z,86
2022-10-25T16:24:16.000Z,86.1
2022-10-25T16:25:33.000Z,86.1
2022-10-25T16:26:49.000Z,86.3
2022-10-25T16:28:05.000Z,86.4
2022-10-25T16:29:21.000Z,86.4
2022-10-25T16:30:37.000Z,86.5
2022-10-25T16:31:54.000Z,86.5
2022-10-25T16:33:10.000Z,86.6
2022-10-25T16:34:26.000Z,86.6
2022-10-25T16:35:42.000Z,86.7
2022-10-25T16:36:57.000Z,86.8
2022-10-25T16:38:14.000Z,86.8
2022-10-25T16:39:30.000Z,86.9
2022-10-25T16:40:46.000Z,87
2022-10-25T16:42:02.000Z,87
2022-10-25T16:43:18.000Z,86.9
2022-10-25T16:44:34.000Z,86.9
2022-10-25T16:45:51.000Z,86.9
2022-10-25T16:47:07.000Z,86.9
2022-10-25T16:48:23.000Z,86.9
2022-10-25T16:49:39.000Z,87.1
2022-10-25T16:50:55.000Z,87.2
2022-10-25T16:52:12.000Z,87.3
2022-10-25T16:53:27.000Z,87.4
2022-10-25T16:54:43.000Z,87.6
2022-10-25T16:55:59.000Z,87.7
2022-10-25T16:57:15.000Z,87.8
2022-10-25T16:58:32.000Z,87.8
2022-10-25T16:59:48.000Z,87.9
2022-10-25T17:01:04.000Z,87.9